»·PEaware :: N433YE KFAT-KMRY

N433YE :: KFAT-KMRY

FLIGHT INFORMATION

Flight Status: Arrived
Operator: Privately registered:
United States
More flights under this callsign
Pilot: Jeremy H. (10741)
Aircraft: Diamond DA-62
(DA62)
More flights by this aircraft type
Origin: KFAT Fresno Yosemite Intl
United States
Destination: KMRY Monterey Peninsula
United States
More flights between these airports :: More routes between these airports
Route: +BULL3 CZQ V230 SNS
File this flight plan on PilotEdge
Remarks:
Altitude:
(Current/Filed)
6,000ft
Speed:
(Current/Filed)
181kts
Departed: 06-Aug-18 10:18 AM
Arrived: 06-Aug-18 11:05 AM
Distance/Time
Traveled:
103nm/0:47
Distance/Time
To Go:
Arrived

Flight Plot

Page will automatically refresh every two minutes.

Flight plan parsing failed; only flown route is shown


Map Options




Map Legend


Flown Route
Filed Route
Departure Airport
Arrival Airport
Navaid (VOR, NDB)
Fix

Horizontal Profiles

Position Reports

Time Latitude Longitude Heading Altitude Ground
Speed
06-Aug-18 10:03 36.774316 -119.723254 216 328ft 0kts
06-Aug-18 10:04 36.774316 -119.723254 216 328ft 0kts
06-Aug-18 10:05 36.774316 -119.723254 216 328ft 0kts
06-Aug-18 10:06 36.774316 -119.723254 216 328ft 0kts
06-Aug-18 10:07 36.774316 -119.723254 216 328ft 0kts
06-Aug-18 10:08 36.774316 -119.723254 216 328ft 0kts
06-Aug-18 10:09 36.774316 -119.723254 216 328ft 0kts
06-Aug-18 10:10 36.774316 -119.723254 215 328ft 0kts
06-Aug-18 10:11 36.774316 -119.723254 216 328ft 0kts
06-Aug-18 10:12 36.774316 -119.723254 216 328ft 0kts
06-Aug-18 10:13 36.774316 -119.723254 216 328ft 0kts
06-Aug-18 10:14 36.774700 -119.723087 74 329ft 8kts
06-Aug-18 10:15 36.772654 -119.717877 124 328ft 15kts
06-Aug-18 10:16 36.770937 -119.713667 126 327ft 17kts
06-Aug-18 10:17 36.770080 -119.710984 20 328ft 0kts
06-Aug-18 10:18 36.770080 -119.710984 20 328ft 0kts
06-Aug-18 10:19 36.774698 -119.717800 305 368ft 93kts
06-Aug-18 10:20 36.789658 -119.746104 304 1824ft 94kts
06-Aug-18 10:21 36.804256 -119.773403 304 3287ft 96kts
06-Aug-18 10:22 36.819419 -119.801248 304 4729ft 99kts
06-Aug-18 10:23 36.824320 -119.834468 274 6195ft 97kts
06-Aug-18 10:24 36.824157 -119.867376 272 7647ft 95kts
06-Aug-18 10:25 36.823987 -119.900268 271 9067ft 96kts
06-Aug-18 10:26 36.823738 -119.936151 269 10014ft 135kts
06-Aug-18 10:27 36.823231 -119.992031 269 9996ft 175kts
06-Aug-18 10:28 36.822542 -120.054052 269 9993ft 180kts
06-Aug-18 10:29 36.822006 -120.116910 269 9995ft 181kts
06-Aug-18 10:30 36.821152 -120.179512 263 9992ft 181kts
06-Aug-18 10:31 36.810784 -120.240861 258 9971ft 182kts
06-Aug-18 10:32 36.800001 -120.302491 258 9953ft 181kts
06-Aug-18 10:33 36.789289 -120.363513 258 9953ft 180kts
06-Aug-18 10:34 36.778504 -120.424762 258 9953ft 180kts
06-Aug-18 10:35 36.767708 -120.485881 258 9953ft 180kts
06-Aug-18 10:36 36.756875 -120.546992 258 9951ft 180kts
06-Aug-18 10:37 36.747847 -120.597780 258 9949ft 180kts
06-Aug-18 10:38 36.737047 -120.658359 257 9948ft 180kts
06-Aug-18 10:39 36.724346 -120.729377 257 9946ft 180kts
06-Aug-18 10:40 36.714848 -120.790510 265 9957ft 180kts
06-Aug-18 10:41 36.711717 -120.842414 265 9966ft 180kts
06-Aug-18 10:42 36.707979 -120.904785 265 9978ft 180kts
06-Aug-18 10:43 36.683768 -120.958243 233 9989ft 182kts
06-Aug-18 10:44 36.647088 -121.016196 233 9990ft 181kts
06-Aug-18 10:45 36.622510 -121.054064 233 9988ft 160kts
06-Aug-18 10:46 36.594586 -121.096005 233 9990ft 155kts
06-Aug-18 10:47 36.566667 -121.137041 233 9990ft 155kts
06-Aug-18 10:48 36.539457 -121.178736 237 9990ft 155kts
06-Aug-18 10:49 36.512842 -121.221505 235 9990ft 157kts
06-Aug-18 10:50 36.485327 -121.263972 235 9691ft 159kts
06-Aug-18 10:51 36.457428 -121.306573 234 8918ft 158kts
06-Aug-18 10:52 36.429729 -121.348797 234 8134ft 157kts
06-Aug-18 10:53 36.435862 -121.391842 296 7760ft 128kts
06-Aug-18 10:54 36.449554 -121.434105 293 7110ft 133kts
06-Aug-18 10:55 36.462789 -121.477068 293 6431ft 131kts
06-Aug-18 10:56 36.476571 -121.517493 295 5904ft 125kts
06-Aug-18 10:57 36.490207 -121.558313 295 5296ft 123kts
06-Aug-18 10:58 36.502293 -121.594541 295 4660ft 108kts
06-Aug-18 10:59 36.513136 -121.626147 295 4284ft 105kts
06-Aug-18 11:00 36.524363 -121.659366 293 3650ft 107kts
06-Aug-18 11:01 36.535632 -121.692949 293 3091ft 95kts
06-Aug-18 11:02 36.546727 -121.725606 293 2386ft 103kts
06-Aug-18 11:03 36.557446 -121.757132 293 1790ft 101kts
06-Aug-18 11:04 36.568525 -121.789924 293 1087ft 105kts
06-Aug-18 11:05 36.579664 -121.822688 293 536ft 101kts
06-Aug-18 11:06 36.588541 -121.845170 27 182ft 3kts
06-Aug-18 11:07 36.588470 -121.845494 235 181ft 6kts
06-Aug-18 11:08 36.589969 -121.850566 300 161ft 16kts
06-Aug-18 11:09 36.591518 -121.847054 55 155ft 6kts
06-Aug-18 11:10 36.591460 -121.846658 172 156ft 0kts
06-Aug-18 11:11 36.591460 -121.846658 172 156ft 0kts
06-Aug-18 11:12 36.591460 -121.846658 172 156ft 0kts
06-Aug-18 11:13 36.591460 -121.846658 172 156ft 0kts

Navigation Log

Ident Type
Flight plan parsing failed, navigation log unavailable